sensor_id;sensor_type;location;lat;lon;timestamp;temperature;humidity
14850;DHT22;7517;48.400;11.770;2023-04-25T00:00:36;11.40;69.70
14850;DHT22;7517;48.400;11.770;2023-04-25T00:03:03;11.40;69.70
14850;DHT22;7517;48.400;11.770;2023-04-25T00:05:31;11.40;69.80
14850;DHT22;7517;48.400;11.770;2023-04-25T00:08:00;11.40;69.90
14850;DHT22;7517;48.400;11.770;2023-04-25T00:10:27;11.40;70.10
14850;DHT22;7517;48.400;11.770;2023-04-25T00:12:54;11.40;70.80
14850;DHT22;7517;48.400;11.770;2023-04-25T00:15:23;11.40;70.10
14850;DHT22;7517;48.400;11.770;2023-04-25T00:17:50;11.40;70.10
14850;DHT22;7517;48.400;11.770;2023-04-25T00:20:18;11.40;70.10
14850;DHT22;7517;48.400;11.770;2023-04-25T00:22:45;11.40;70.10
14850;DHT22;7517;48.400;11.770;2023-04-25T00:25:15;11.40;70.10
14850;DHT22;7517;48.400;11.770;2023-04-25T00:27:42;11.40;70.10
14850;DHT22;7517;48.400;11.770;2023-04-25T00:30:10;11.40;70.10
14850;DHT22;7517;48.400;11.770;2023-04-25T00:32:39;11.50;70.20
14850;DHT22;7517;48.400;11.770;2023-04-25T00:35:06;11.50;70.40
14850;DHT22;7517;48.400;11.770;2023-04-25T00:37:34;11.50;70.60
14850;DHT22;7517;48.400;11.770;2023-04-25T00:40:05;11.50;70.70
14850;DHT22;7517;48.400;11.770;2023-04-25T00:42:35;11.50;70.50
14850;DHT22;7517;48.400;11.770;2023-04-25T00:45:05;11.60;70.50
14850;DHT22;7517;48.400;11.770;2023-04-25T00:47:35;11.60;70.50
14850;DHT22;7517;48.400;11.770;2023-04-25T00:50:04;11.60;70.70
14850;DHT22;7517;48.400;11.770;2023-04-25T00:52:33;11.60;70.70
14850;DHT22;7517;48.400;11.770;2023-04-25T00:55:01;11.70;70.80
14850;DHT22;7517;48.400;11.770;2023-04-25T00:57:28;11.70;70.80
14850;DHT22;7517;48.400;11.770;2023-04-25T00:59:57;11.70;70.90
14850;DHT22;7517;48.400;11.770;2023-04-25T01:02:25;11.80;71.00
14850;DHT22;7517;48.400;11.770;2023-04-25T01:04:53;11.80;71.00
14850;DHT22;7517;48.400;11.770;2023-04-25T01:07:21;11.80;71.10
14850;DHT22;7517;48.400;11.770;2023-04-25T01:09:48;11.90;71.00
14850;DHT22;7517;48.400;11.770;2023-04-25T01:12:20;11.90;71.00
14850;DHT22;7517;48.400;11.770;2023-04-25T01:14:48;11.90;70.90
14850;DHT22;7517;48.400;11.770;2023-04-25T01:17:17;12.00;71.00
14850;DHT22;7517;48.400;11.770;2023-04-25T01:19:44;12.00;70.80
14850;DHT22;7517;48.400;11.770;2023-04-25T01:22:15;12.00;70.80
14850;DHT22;7517;48.400;11.770;2023-04-25T01:24:43;12.00;70.70
14850;DHT22;7517;48.400;11.770;2023-04-25T01:27:12;12.10;70.70
14850;DHT22;7517;48.400;11.770;2023-04-25T01:29:39;12.10;70.70
14850;DHT22;7517;48.400;11.770;2023-04-25T01:32:07;12.10;70.60
14850;DHT22;7517;48.400;11.770;2023-04-25T01:34:35;12.10;70.80
14850;DHT22;7517;48.400;11.770;2023-04-25T01:37:03;12.10;70.80
14850;DHT22;7517;48.400;11.770;2023-04-25T01:39:32;12.10;70.60
14850;DHT22;7517;48.400;11.770;2023-04-25T01:41:59;12.10;70.50
14850;DHT22;7517;48.400;11.770;2023-04-25T01:44:27;12.10;70.60
14850;DHT22;7517;48.400;11.770;2023-04-25T01:46:54;12.10;70.80
14850;DHT22;7517;48.400;11.770;2023-04-25T01:49:22;12.10;70.70
14850;DHT22;7517;48.400;11.770;2023-04-25T01:51:49;12.10;70.70
14850;DHT22;7517;48.400;11.770;2023-04-25T01:54:17;12.10;70.80
14850;DHT22;7517;48.400;11.770;2023-04-25T01:56:51;12.10;70.90
14850;DHT22;7517;48.400;11.770;2023-04-25T01:59:19;12.10;70.90
14850;DHT22;7517;48.400;11.770;2023-04-25T02:01:47;12.10;71.00
14850;DHT22;7517;48.400;11.770;2023-04-25T02:04:15;12.20;70.90
14850;DHT22;7517;48.400;11.770;2023-04-25T02:06:42;12.10;70.80
14850;DHT22;7517;48.400;11.770;2023-04-25T02:09:09;12.10;70.70
14850;DHT22;7517;48.400;11.770;2023-04-25T02:11:36;12.10;70.50
14850;DHT22;7517;48.400;11.770;2023-04-25T02:14:04;12.10;70.50
14850;DHT22;7517;48.400;11.770;2023-04-25T02:16:32;12.10;70.50
14850;DHT22;7517;48.400;11.770;2023-04-25T02:18:59;12.10;70.50
14850;DHT22;7517;48.400;11.770;2023-04-25T02:21:26;12.00;70.60
14850;DHT22;7517;48.400;11.770;2023-04-25T02:23:53;12.00;70.50
14850;DHT22;7517;48.400;11.770;2023-04-25T02:26:21;12.00;70.30
14850;DHT22;7517;48.400;11.770;2023-04-25T02:28:50;11.90;70.20
14850;DHT22;7517;48.400;11.770;2023-04-25T02:31:18;11.90;70.40
14850;DHT22;7517;48.400;11.770;2023-04-25T02:33:46;11.90;70.60
14850;DHT22;7517;48.400;11.770;2023-04-25T02:36:14;11.80;70.60
14850;DHT22;7517;48.400;11.770;2023-04-25T02:38:41;11.80;70.70
14850;DHT22;7517;48.400;11.770;2023-04-25T02:41:09;11.80;70.80
14850;DHT22;7517;48.400;11.770;2023-04-25T02:43:36;11.80;71.00
14850;DHT22;7517;48.400;11.770;2023-04-25T02:46:03;11.70;71.00
14850;DHT22;7517;48.400;11.770;2023-04-25T02:48:32;11.70;71.10
14850;DHT22;7517;48.400;11.770;2023-04-25T02:50:59;11.70;71.40
14850;DHT22;7517;48.400;11.770;2023-04-25T02:53:26;11.70;71.40
14850;DHT22;7517;48.400;11.770;2023-04-25T02:55:54;11.70;71.50
14850;DHT22;7517;48.400;11.770;2023-04-25T02:58:23;11.70;71.60
14850;DHT22;7517;48.400;11.770;2023-04-25T03:00:51;11.70;71.50
14850;DHT22;7517;48.400;11.770;2023-04-25T03:03:18;11.70;71.50
14850;DHT22;7517;48.400;11.770;2023-04-25T03:05:48;11.60;71.50
14850;DHT22;7517;48.400;11.770;2023-04-25T03:08:16;11.60;71.70
14850;DHT22;7517;48.400;11.770;2023-04-25T03:10:43;11.60;71.90
14850;DHT22;7517;48.400;11.770;2023-04-25T03:13:11;11.60;72.00
14850;DHT22;7517;48.400;11.770;2023-04-25T03:15:38;11.60;72.10
14850;DHT22;7517;48.400;11.770;2023-04-25T03:18:05;11.60;72.20
14850;DHT22;7517;48.400;11.770;2023-04-25T03:20:33;11.70;72.30
14850;DHT22;7517;48.400;11.770;2023-04-25T03:23:02;11.70;72.40
14850;DHT22;7517;48.400;11.770;2023-04-25T03:25:29;11.70;72.40
14850;DHT22;7517;48.400;11.770;2023-04-25T03:27:56;11.70;72.50
14850;DHT22;7517;48.400;11.770;2023-04-25T03:30:24;11.70;72.60
14850;DHT22;7517;48.400;11.770;2023-04-25T03:32:51;11.70;72.70
14850;DHT22;7517;48.400;11.770;2023-04-25T03:35:18;11.70;72.70
14850;DHT22;7517;48.400;11.770;2023-04-25T03:37:45;11.80;72.90
14850;DHT22;7517;48.400;11.770;2023-04-25T03:40:14;11.80;73.00
14850;DHT22;7517;48.400;11.770;2023-04-25T03:42:41;11.80;73.20
14850;DHT22;7517;48.400;11.770;2023-04-25T03:45:09;11.80;73.50
14850;DHT22;7517;48.400;11.770;2023-04-25T03:47:36;11.80;73.60
14850;DHT22;7517;48.400;11.770;2023-04-25T03:50:04;11.80;73.60
14850;DHT22;7517;48.400;11.770;2023-04-25T03:52:32;11.90;73.60
14850;DHT22;7517;48.400;11.770;2023-04-25T03:54:59;11.90;73.70
14850;DHT22;7517;48.400;11.770;2023-04-25T03:57:28;11.90;73.70
14850;DHT22;7517;48.400;11.770;2023-04-25T03:59:55;11.90;73.60
14850;DHT22;7517;48.400;11.770;2023-04-25T04:02:22;11.90;73.60
14850;DHT22;7517;48.400;11.770;2023-04-25T04:04:49;11.90;73.70
14850;DHT22;7517;48.400;11.770;2023-04-25T04:07:17;11.90;73.90
14850;DHT22;7517;48.400;11.770;2023-04-25T04:09:44;11.90;74.00
14850;DHT22;7517;48.400;11.770;2023-04-25T04:12:11;11.90;73.90
14850;DHT22;7517;48.400;11.770;2023-04-25T04:14:40;11.90;73.80
14850;DHT22;7517;48.400;11.770;2023-04-25T04:17:07;11.90;73.80
14850;DHT22;7517;48.400;11.770;2023-04-25T04:19:35;11.90;73.90
14850;DHT22;7517;48.400;11.770;2023-04-25T04:22:02;11.90;73.80
14850;DHT22;7517;48.400;11.770;2023-04-25T04:24:29;12.00;74.10
14850;DHT22;7517;48.400;11.770;2023-04-25T04:26:57;12.00;74.00
14850;DHT22;7517;48.400;11.770;2023-04-25T04:29:24;12.00;74.10
14850;DHT22;7517;48.400;11.770;2023-04-25T04:31:53;12.00;74.10
14850;DHT22;7517;48.400;11.770;2023-04-25T04:34:23;12.00;74.10
14850;DHT22;7517;48.400;11.770;2023-04-25T04:36:52;12.00;74.20
14850;DHT22;7517;48.400;11.770;2023-04-25T04:39:20;12.10;74.30
14850;DHT22;7517;48.400;11.770;2023-04-25T04:41:48;12.10;74.20
14850;DHT22;7517;48.400;11.770;2023-04-25T04:44:16;12.10;74.10
14850;DHT22;7517;48.400;11.770;2023-04-25T04:46:43;12.10;74.10
14850;DHT22;7517;48.400;11.770;2023-04-25T04:49:14;12.10;74.10
14850;DHT22;7517;48.400;11.770;2023-04-25T04:51:41;12.20;74.10
14850;DHT22;7517;48.400;11.770;2023-04-25T04:54:10;12.30;75.00
14850;DHT22;7517;48.400;11.770;2023-04-25T04:56:37;12.30;74.10
14850;DHT22;7517;48.400;11.770;2023-04-25T04:59:05;12.30;74.00
14850;DHT22;7517;48.400;11.770;2023-04-25T05:01:32;12.40;73.80
14850;DHT22;7517;48.400;11.770;2023-04-25T05:04:00;12.40;73.70
14850;DHT22;7517;48.400;11.770;2023-04-25T05:06:30;12.40;73.70
14850;DHT22;7517;48.400;11.770;2023-04-25T05:08:59;12.40;73.50
14850;DHT22;7517;48.400;11.770;2023-04-25T05:11:26;12.50;73.60
14850;DHT22;7517;48.400;11.770;2023-04-25T05:13:54;12.50;73.50
14850;DHT22;7517;48.400;11.770;2023-04-25T05:16:21;12.50;73.40
14850;DHT22;7517;48.400;11.770;2023-04-25T05:18:49;12.50;73.20
14850;DHT22;7517;48.400;11.770;2023-04-25T05:21:16;12.60;73.30
14850;DHT22;7517;48.400;11.770;2023-04-25T05:23:45;12.60;73.10
14850;DHT22;7517;48.400;11.770;2023-04-25T05:26:12;12.60;73.00
14850;DHT22;7517;48.400;11.770;2023-04-25T05:28:40;12.60;73.10
14850;DHT22;7517;48.400;11.770;2023-04-25T05:31:08;12.70;73.20
14850;DHT22;7517;48.400;11.770;2023-04-25T05:33:36;12.70;73.00
14850;DHT22;7517;48.400;11.770;2023-04-25T05:36:05;12.70;72.90
14850;DHT22;7517;48.400;11.770;2023-04-25T05:38:33;12.80;73.10
14850;DHT22;7517;48.400;11.770;2023-04-25T05:41:02;12.80;73.00
14850;DHT22;7517;48.400;11.770;2023-04-25T05:43:30;12.80;72.90
14850;DHT22;7517;48.400;11.770;2023-04-25T05:45:57;12.90;73.00
14850;DHT22;7517;48.400;11.770;2023-04-25T05:48:26;12.90;72.90
14850;DHT22;7517;48.400;11.770;2023-04-25T05:50:54;12.90;72.90
14850;DHT22;7517;48.400;11.770;2023-04-25T05:53:21;12.90;73.10
14850;DHT22;7517;48.400;11.770;2023-04-25T05:55:49;13.00;73.20
14850;DHT22;7517;48.400;11.770;2023-04-25T05:58:17;13.00;73.20
14850;DHT22;7517;48.400;11.770;2023-04-25T06:00:45;13.00;73.20
14850;DHT22;7517;48.400;11.770;2023-04-25T06:03:13;13.10;73.20
14850;DHT22;7517;48.400;11.770;2023-04-25T06:05:41;13.10;73.10
14850;DHT22;7517;48.400;11.770;2023-04-25T06:08:09;13.10;73.00
14850;DHT22;7517;48.400;11.770;2023-04-25T06:10:36;13.20;72.80
14850;DHT22;7517;48.400;11.770;2023-04-25T06:13:04;13.30;72.80
14850;DHT22;7517;48.400;11.770;2023-04-25T06:15:33;13.30;72.60
14850;DHT22;7517;48.400;11.770;2023-04-25T06:18:00;13.30;72.30
14850;DHT22;7517;48.400;11.770;2023-04-25T06:20:28;13.40;71.80
14850;DHT22;7517;48.400;11.770;2023-04-25T06:22:55;13.40;72.00
14850;DHT22;7517;48.400;11.770;2023-04-25T06:25:23;13.40;71.90
14850;DHT22;7517;48.400;11.770;2023-04-25T06:27:50;13.40;71.80
14850;DHT22;7517;48.400;11.770;2023-04-25T06:30:18;13.40;72.00
14850;DHT22;7517;48.400;11.770;2023-04-25T06:32:50;13.50;72.30
14850;DHT22;7517;48.400;11.770;2023-04-25T06:35:18;13.50;72.50
14850;DHT22;7517;48.400;11.770;2023-04-25T06:37:46;13.50;72.20
14850;DHT22;7517;48.400;11.770;2023-04-25T06:40:13;13.60;72.30
14850;DHT22;7517;48.400;11.770;2023-04-25T06:42:40;13.70;72.40
14850;DHT22;7517;48.400;11.770;2023-04-25T06:45:08;13.70;72.30
14850;DHT22;7517;48.400;11.770;2023-04-25T06:47:36;13.70;72.30
14850;DHT22;7517;48.400;11.770;2023-04-25T06:50:06;13.70;71.70
14850;DHT22;7517;48.400;11.770;2023-04-25T06:52:34;13.70;71.90
14850;DHT22;7517;48.400;11.770;2023-04-25T06:55:01;13.60;71.80
14850;DHT22;7517;48.400;11.770;2023-04-25T06:57:30;13.60;71.90
14850;DHT22;7517;48.400;11.770;2023-04-25T06:59:57;13.50;72.00
14850;DHT22;7517;48.400;11.770;2023-04-25T07:02:24;13.50;72.40
14850;DHT22;7517;48.400;11.770;2023-04-25T07:04:52;13.40;72.50
14850;DHT22;7517;48.400;11.770;2023-04-25T07:07:24;13.30;72.60
14850;DHT22;7517;48.400;11.770;2023-04-25T07:09:51;13.20;72.90
14850;DHT22;7517;48.400;11.770;2023-04-25T07:12:18;13.10;73.10
14850;DHT22;7517;48.400;11.770;2023-04-25T07:14:46;13.00;73.50
14850;DHT22;7517;48.400;11.770;2023-04-25T07:17:13;12.90;74.00
14850;DHT22;7517;48.400;11.770;2023-04-25T07:19:40;12.80;74.40
14850;DHT22;7517;48.400;11.770;2023-04-25T07:22:09;12.70;75.00
14850;DHT22;7517;48.400;11.770;2023-04-25T07:24:37;12.70;76.10
14850;DHT22;7517;48.400;11.770;2023-04-25T07:27:05;12.60;75.80
14850;DHT22;7517;48.400;11.770;2023-04-25T07:29:32;12.60;76.20
14850;DHT22;7517;48.400;11.770;2023-04-25T07:32:03;12.60;76.70
14850;DHT22;7517;48.400;11.770;2023-04-25T07:34:30;12.60;77.70
14850;DHT22;7517;48.400;11.770;2023-04-25T07:36:57;12.70;78.30
14850;DHT22;7517;48.400;11.770;2023-04-25T07:39:25;12.70;78.50
14850;DHT22;7517;48.400;11.770;2023-04-25T07:41:54;12.80;78.70
14850;DHT22;7517;48.400;11.770;2023-04-25T07:44:23;12.90;78.80
14850;DHT22;7517;48.400;11.770;2023-04-25T07:46:52;13.00;78.70
14850;DHT22;7517;48.400;11.770;2023-04-25T07:49:19;13.00;78.70
14850;DHT22;7517;48.400;11.770;2023-04-25T07:51:47;13.10;79.10
14850;DHT22;7517;48.400;11.770;2023-04-25T07:54:15;13.20;79.00
14850;DHT22;7517;48.400;11.770;2023-04-25T07:56:42;13.30;78.60
14850;DHT22;7517;48.400;11.770;2023-04-25T07:59:11;13.40;78.50
14850;DHT22;7517;48.400;11.770;2023-04-25T08:01:38;13.50;78.70
14850;DHT22;7517;48.400;11.770;2023-04-25T08:04:06;13.60;78.40
14850;DHT22;7517;48.400;11.770;2023-04-25T08:06:33;13.70;78.50
14850;DHT22;7517;48.400;11.770;2023-04-25T08:09:01;13.70;78.60
14850;DHT22;7517;48.400;11.770;2023-04-25T08:11:29;13.90;78.90
14850;DHT22;7517;48.400;11.770;2023-04-25T08:13:56;14.00;78.80
14850;DHT22;7517;48.400;11.770;2023-04-25T08:16:25;14.10;78.80
14850;DHT22;7517;48.400;11.770;2023-04-25T08:18:53;14.30;79.70
14850;DHT22;7517;48.400;11.770;2023-04-25T08:21:20;14.40;78.80
14850;DHT22;7517;48.400;11.770;2023-04-25T08:23:51;14.60;78.30
14850;DHT22;7517;48.400;11.770;2023-04-25T08:26:18;14.70;77.70
14850;DHT22;7517;48.400;11.770;2023-04-25T08:28:46;14.80;77.80
14850;DHT22;7517;48.400;11.770;2023-04-25T08:31:13;15.00;77.70
14850;DHT22;7517;48.400;11.770;2023-04-25T08:33:42;15.10;77.50
14850;DHT22;7517;48.400;11.770;2023-04-25T08:36:10;15.30;77.20
14850;DHT22;7517;48.400;11.770;2023-04-25T08:38:37;15.50;77.20
14850;DHT22;7517;48.400;11.770;2023-04-25T08:41:05;15.70;76.70
14850;DHT22;7517;48.400;11.770;2023-04-25T08:43:35;15.80;75.70
14850;DHT22;7517;48.400;11.770;2023-04-25T08:46:02;15.90;75.30
14850;DHT22;7517;48.400;11.770;2023-04-25T08:48:32;16.10;75.50
14850;DHT22;7517;48.400;11.770;2023-04-25T08:51:02;16.30;74.50
14850;DHT22;7517;48.400;11.770;2023-04-25T08:53:34;16.50;74.60
14850;DHT22;7517;48.400;11.770;2023-04-25T08:56:01;16.70;74.10
14850;DHT22;7517;48.400;11.770;2023-04-25T08:58:32;16.90;73.10
14850;DHT22;7517;48.400;11.770;2023-04-25T09:01:00;17.00;72.90
14850;DHT22;7517;48.400;11.770;2023-04-25T09:03:28;17.10;72.00
14850;DHT22;7517;48.400;11.770;2023-04-25T09:05:56;17.80;70.70
14850;DHT22;7517;48.400;11.770;2023-04-25T09:08:25;17.20;69.30
14850;DHT22;7517;48.400;11.770;2023-04-25T09:10:52;17.20;69.10
14850;DHT22;7517;48.400;11.770;2023-04-25T09:13:25;17.10;68.10
14850;DHT22;7517;48.400;11.770;2023-04-25T09:15:54;17.00;67.80
14850;DHT22;7517;48.400;11.770;2023-04-25T09:18:24;16.80;67.90
14850;DHT22;7517;48.400;11.770;2023-04-25T09:20:52;16.60;68.20
14850;DHT22;7517;48.400;11.770;2023-04-25T09:23:21;16.40;68.60
14850;DHT22;7517;48.400;11.770;2023-04-25T09:25:52;16.30;68.50
14850;DHT22;7517;48.400;11.770;2023-04-25T09:28:23;16.20;69.00
14850;DHT22;7517;48.400;11.770;2023-04-25T09:30:55;16.10;69.70
14850;DHT22;7517;48.400;11.770;2023-04-25T09:33:28;16.10;71.40
14850;DHT22;7517;48.400;11.770;2023-04-25T09:36:03;16.20;73.00
14850;DHT22;7517;48.400;11.770;2023-04-25T09:38:39;16.40;74.20
14850;DHT22;7517;48.400;11.770;2023-04-25T09:41:09;16.60;75.40
14850;DHT22;7517;48.400;11.770;2023-04-25T09:43:38;16.90;75.10
14850;DHT22;7517;48.400;11.770;2023-04-25T09:46:09;17.20;74.50
14850;DHT22;7517;48.400;11.770;2023-04-25T09:48:37;17.40;73.90
14850;DHT22;7517;48.400;11.770;2023-04-25T09:51:06;17.60;72.20
14850;DHT22;7517;48.400;11.770;2023-04-25T09:53:36;17.80;70.40
14850;DHT22;7517;48.400;11.770;2023-04-25T09:56:06;17.80;69.20
14850;DHT22;7517;48.400;11.770;2023-04-25T09:58:38;17.90;69.10
14850;DHT22;7517;48.400;11.770;2023-04-25T10:01:08;18.00;69.40
14850;DHT22;7517;48.400;11.770;2023-04-25T10:03:37;18.20;70.40
14850;DHT22;7517;48.400;11.770;2023-04-25T10:06:11;18.50;71.00
14850;DHT22;7517;48.400;11.770;2023-04-25T10:08:42;18.70;69.10
14850;DHT22;7517;48.400;11.770;2023-04-25T10:11:14;18.90;68.50
14850;DHT22;7517;48.400;11.770;2023-04-25T10:13:43;19.00;68.20
14850;DHT22;7517;48.400;11.770;2023-04-25T10:16:11;19.20;67.30
14850;DHT22;7517;48.400;11.770;2023-04-25T10:18:38;19.30;68.00
14850;DHT22;7517;48.400;11.770;2023-04-25T10:21:06;19.50;66.50
14850;DHT22;7517;48.400;11.770;2023-04-25T10:23:35;19.60;65.70
14850;DHT22;7517;48.400;11.770;2023-04-25T10:26:04;19.70;64.70
14850;DHT22;7517;48.400;11.770;2023-04-25T10:28:55;19.70;63.50
14850;DHT22;7517;48.400;11.770;2023-04-25T10:31:23;19.70;60.60
14850;DHT22;7517;48.400;11.770;2023-04-25T10:33:51;19.70;62.90
14850;DHT22;7517;48.400;11.770;2023-04-25T10:36:19;19.60;61.80
14850;DHT22;7517;48.400;11.770;2023-04-25T10:38:49;19.60;61.50
14850;DHT22;7517;48.400;11.770;2023-04-25T10:41:19;19.50;61.20
14850;DHT22;7517;48.400;11.770;2023-04-25T10:43:49;19.40;60.50
14850;DHT22;7517;48.400;11.770;2023-04-25T10:46:28;19.40;59.60
14850;DHT22;7517;48.400;11.770;2023-04-25T10:48:57;19.20;59.60
14850;DHT22;7517;48.400;11.770;2023-04-25T10:51:27;19.10;59.30
14850;DHT22;7517;48.400;11.770;2023-04-25T10:54:00;19.00;59.40
14850;DHT22;7517;48.400;11.770;2023-04-25T10:56:29;18.90;59.20
14850;DHT22;7517;48.400;11.770;2023-04-25T10:59:10;18.70;59.90
14850;DHT22;7517;48.400;11.770;2023-04-25T11:01:39;18.50;59.90
14850;DHT22;7517;48.400;11.770;2023-04-25T11:04:19;18.30;60.30
14850;DHT22;7517;48.400;11.770;2023-04-25T11:07:00;18.00;60.30
14850;DHT22;7517;48.400;11.770;2023-04-25T11:09:32;17.80;61.10
14850;DHT22;7517;48.400;11.770;2023-04-25T11:12:00;17.60;61.80
14850;DHT22;7517;48.400;11.770;2023-04-25T11:14:29;17.50;62.50
14850;DHT22;7517;48.400;11.770;2023-04-25T11:16:58;17.40;62.90
14850;DHT22;7517;48.400;11.770;2023-04-25T11:19:26;17.20;63.10
14850;DHT22;7517;48.400;11.770;2023-04-25T11:21:55;17.20;63.50
14850;DHT22;7517;48.400;11.770;2023-04-25T11:24:27;17.10;63.70
14850;DHT22;7517;48.400;11.770;2023-04-25T11:26:55;17.00;63.00
14850;DHT22;7517;48.400;11.770;2023-04-25T11:29:26;16.90;62.80
14850;DHT22;7517;48.400;11.770;2023-04-25T11:31:56;16.80;63.10
14850;DHT22;7517;48.400;11.770;2023-04-25T11:34:24;16.70;63.50
14850;DHT22;7517;48.400;11.770;2023-04-25T11:36:52;16.60;63.90
14850;DHT22;7517;48.400;11.770;2023-04-25T11:39:20;16.50;64.00
14850;DHT22;7517;48.400;11.770;2023-04-25T11:41:48;16.50;64.10
14850;DHT22;7517;48.400;11.770;2023-04-25T11:44:16;16.40;64.80
14850;DHT22;7517;48.400;11.770;2023-04-25T11:46:43;16.40;65.10
14850;DHT22;7517;48.400;11.770;2023-04-25T11:49:12;16.40;65.40
14850;DHT22;7517;48.400;11.770;2023-04-25T11:51:39;16.40;65.50
14850;DHT22;7517;48.400;11.770;2023-04-25T11:54:07;16.40;65.20
14850;DHT22;7517;48.400;11.770;2023-04-25T11:56:35;16.40;65.20
14850;DHT22;7517;48.400;11.770;2023-04-25T11:59:03;16.30;65.00
14850;DHT22;7517;48.400;11.770;2023-04-25T12:01:32;16.30;64.50
14850;DHT22;7517;48.400;11.770;2023-04-25T12:04:12;16.20;65.20
14850;DHT22;7517;48.400;11.770;2023-04-25T12:06:42;16.10;64.90
14850;DHT22;7517;48.400;11.770;2023-04-25T12:09:12;16.00;64.30
14850;DHT22;7517;48.400;11.770;2023-04-25T12:11:44;15.90;64.20
14850;DHT22;7517;48.400;11.770;2023-04-25T12:14:12;15.70;64.40
14850;DHT22;7517;48.400;11.770;2023-04-25T12:16:48;15.60;64.70
14850;DHT22;7517;48.400;11.770;2023-04-25T12:19:20;15.40;65.20
14850;DHT22;7517;48.400;11.770;2023-04-25T12:21:48;15.20;65.40
14850;DHT22;7517;48.400;11.770;2023-04-25T12:24:17;15.10;66.00
14850;DHT22;7517;48.400;11.770;2023-04-25T12:26:50;14.80;66.70
14850;DHT22;7517;48.400;11.770;2023-04-25T12:29:21;14.60;67.20
14850;DHT22;7517;48.400;11.770;2023-04-25T12:31:49;14.50;67.80
14850;DHT22;7517;48.400;11.770;2023-04-25T12:34:20;14.30;68.20
14850;DHT22;7517;48.400;11.770;2023-04-25T12:36:48;14.10;68.80
14850;DHT22;7517;48.400;11.770;2023-04-25T12:39:16;13.90;68.90
14850;DHT22;7517;48.400;11.770;2023-04-25T12:41:43;13.80;69.70
14850;DHT22;7517;48.400;11.770;2023-04-25T12:44:12;13.60;70.40
14850;DHT22;7517;48.400;11.770;2023-04-25T12:46:40;13.50;70.60
14850;DHT22;7517;48.400;11.770;2023-04-25T12:49:08;13.40;71.10
14850;DHT22;7517;48.400;11.770;2023-04-25T12:51:37;13.30;71.80
14850;DHT22;7517;48.400;11.770;2023-04-25T12:54:06;13.20;72.20
14850;DHT22;7517;48.400;11.770;2023-04-25T12:56:34;13.10;72.50
14850;DHT22;7517;48.400;11.770;2023-04-25T12:59:02;13.00;73.10
14850;DHT22;7517;48.400;11.770;2023-04-25T13:01:30;13.00;73.50
14850;DHT22;7517;48.400;11.770;2023-04-25T13:03:57;12.90;74.10
14850;DHT22;7517;48.400;11.770;2023-04-25T13:06:25;12.90;74.80
14850;DHT22;7517;48.400;11.770;2023-04-25T13:08:54;12.90;75.30
14850;DHT22;7517;48.400;11.770;2023-04-25T13:11:21;12.90;75.50
14850;DHT22;7517;48.400;11.770;2023-04-25T13:13:51;12.90;75.80
14850;DHT22;7517;48.400;11.770;2023-04-25T13:16:19;12.90;76.00
14850;DHT22;7517;48.400;11.770;2023-04-25T13:18:47;12.90;76.30
14850;DHT22;7517;48.400;11.770;2023-04-25T13:21:15;12.90;76.80
14850;DHT22;7517;48.400;11.770;2023-04-25T13:23:42;13.00;77.00
14850;DHT22;7517;48.400;11.770;2023-04-25T13:26:13;13.00;76.90
14850;DHT22;7517;48.400;11.770;2023-04-25T13:28:40;13.00;76.70
14850;DHT22;7517;48.400;11.770;2023-04-25T13:31:07;13.10;76.60
14850;DHT22;7517;48.400;11.770;2023-04-25T13:33:34;13.10;76.50
14850;DHT22;7517;48.400;11.770;2023-04-25T13:36:01;13.10;76.40
14850;DHT22;7517;48.400;11.770;2023-04-25T13:38:29;13.10;76.50
14850;DHT22;7517;48.400;11.770;2023-04-25T13:40:56;13.10;76.70
14850;DHT22;7517;48.400;11.770;2023-04-25T13:43:25;13.10;76.70
14850;DHT22;7517;48.400;11.770;2023-04-25T13:45:52;13.10;77.00
14850;DHT22;7517;48.400;11.770;2023-04-25T13:48:19;13.20;77.30
14850;DHT22;7517;48.400;11.770;2023-04-25T13:50:48;13.20;77.40
14850;DHT22;7517;48.400;11.770;2023-04-25T13:53:15;13.20;77.40
14850;DHT22;7517;48.400;11.770;2023-04-25T13:55:43;13.30;77.10
14850;DHT22;7517;48.400;11.770;2023-04-25T13:58:10;13.30;77.00
14850;DHT22;7517;48.400;11.770;2023-04-25T14:00:40;13.30;77.60
14850;DHT22;7517;48.400;11.770;2023-04-25T14:03:08;13.30;76.70
14850;DHT22;7517;48.400;11.770;2023-04-25T14:05:36;13.40;76.70
14850;DHT22;7517;48.400;11.770;2023-04-25T14:08:05;13.40;76.70
14850;DHT22;7517;48.400;11.770;2023-04-25T14:10:33;13.30;76.40
14850;DHT22;7517;48.400;11.770;2023-04-25T14:13:01;13.30;76.40
14850;DHT22;7517;48.400;11.770;2023-04-25T14:15:30;13.30;76.20
14850;DHT22;7517;48.400;11.770;2023-04-25T14:18:00;13.30;75.80
14850;DHT22;7517;48.400;11.770;2023-04-25T14:20:29;13.30;75.80
14850;DHT22;7517;48.400;11.770;2023-04-25T14:22:57;13.30;75.90
14850;DHT22;7517;48.400;11.770;2023-04-25T14:25:25;13.30;75.90
14850;DHT22;7517;48.400;11.770;2023-04-25T14:27:52;13.30;76.10
14850;DHT22;7517;48.400;11.770;2023-04-25T14:30:20;13.20;76.00
14850;DHT22;7517;48.400;11.770;2023-04-25T14:32:48;13.20;76.30
14850;DHT22;7517;48.400;11.770;2023-04-25T14:35:18;13.20;76.60
14850;DHT22;7517;48.400;11.770;2023-04-25T14:37:45;13.30;76.90
14850;DHT22;7517;48.400;11.770;2023-04-25T14:40:12;13.30;77.20
14850;DHT22;7517;48.400;11.770;2023-04-25T14:42:41;13.30;77.40
14850;DHT22;7517;48.400;11.770;2023-04-25T14:45:09;13.40;77.60
14850;DHT22;7517;48.400;11.770;2023-04-25T14:47:37;13.40;77.80
14850;DHT22;7517;48.400;11.770;2023-04-25T14:50:06;13.40;77.80
14850;DHT22;7517;48.400;11.770;2023-04-25T14:52:35;13.50;77.80
14850;DHT22;7517;48.400;11.770;2023-04-25T14:55:03;13.50;77.80
14850;DHT22;7517;48.400;11.770;2023-04-25T14:57:31;13.60;77.80
14850;DHT22;7517;48.400;11.770;2023-04-25T14:59:58;13.60;77.70
14850;DHT22;7517;48.400;11.770;2023-04-25T15:02:26;13.60;77.60
14850;DHT22;7517;48.400;11.770;2023-04-25T15:04:54;13.60;77.30
14850;DHT22;7517;48.400;11.770;2023-04-25T15:07:22;13.60;77.10
14850;DHT22;7517;48.400;11.770;2023-04-25T15:09:50;13.60;76.90
14850;DHT22;7517;48.400;11.770;2023-04-25T15:12:18;13.60;76.70
14850;DHT22;7517;48.400;11.770;2023-04-25T15:14:45;13.60;76.50
14850;DHT22;7517;48.400;11.770;2023-04-25T15:17:13;13.60;76.20
14850;DHT22;7517;48.400;11.770;2023-04-25T15:19:40;13.60;75.90
14850;DHT22;7517;48.400;11.770;2023-04-25T15:22:07;13.60;76.70
14850;DHT22;7517;48.400;11.770;2023-04-25T15:24:34;13.60;75.80
14850;DHT22;7517;48.400;11.770;2023-04-25T15:27:03;13.50;75.80
14850;DHT22;7517;48.400;11.770;2023-04-25T15:29:31;13.50;76.60
14850;DHT22;7517;48.400;11.770;2023-04-25T15:31:58;13.50;75.80
14850;DHT22;7517;48.400;11.770;2023-04-25T15:34:26;13.50;75.50
14850;DHT22;7517;48.400;11.770;2023-04-25T15:36:53;13.50;75.30